aviador You're here:

CYRV Decoded Metar

REVELSTOKE AIRPO in BC, CANADA
Report Time2017-06-25 13:00:00
UTC Time2017-06-25 13:49:28
Flight Rules vfr VFR
WindCalm
Visibility9999 m
Phenomena:N/A
Clouds:Few 190 Hf
Expected CloudBase > 1,600 ft AGL from Temp-Dew spread
CeilingNone
Temp13°C (ISA +1)
Dew Point09°C (77% RH)
AAT12.8°C
QNH1023 hPa
Density Alt1,381 ft
Elevation1,453 ft
Report Wrong Elevation
Raw Report
CYRV 251300Z AUTO 00000KT 9SM FEW190 13/09 A3020 RMK SLP225=

Extra information for CYRV:More info

Metar Taf Metar & Taf Last 4 Metars F.Rules Stats Wind Profile Meteogram Temp Stats Airport Information Weather charts Add Link Nearby VenuesMetar ALERT Operation Metar Decoded Social comments